createdAt,value
2022-08-25T00:00:21.571Z,96.63
2022-08-25T00:02:55.229Z,97.33
2022-08-25T00:05:29.380Z,97.76
2022-08-25T00:08:01.377Z,97.15
2022-08-25T00:10:30.613Z,97.07
2022-08-25T00:12:59.246Z,97.12
2022-08-25T00:15:27.998Z,97.09
2022-08-25T00:17:57.409Z,96.84
2022-08-25T00:20:26.599Z,96.91
2022-08-25T00:22:57.114Z,96.10
2022-08-25T00:25:26.036Z,96.05
2022-08-25T00:27:54.618Z,95.79
2022-08-25T00:30:23.313Z,95.63
2022-08-25T00:32:55.278Z,95.83
2022-08-25T00:35:27.073Z,95.18
2022-08-25T00:37:56.362Z,95.33
2022-08-25T00:40:27.743Z,96.04
2022-08-25T00:42:57.183Z,95.93
2022-08-25T00:45:26.520Z,95.84
2022-08-25T00:47:56.705Z,95.92
2022-08-25T00:50:30.592Z,95.30
2022-08-25T00:53:03.252Z,96.02
2022-08-25T00:55:40.372Z,96.24
2022-08-25T00:58:17.344Z,96.40
2022-08-25T01:00:50.613Z,95.68
2022-08-25T01:03:20.542Z,96.22
2022-08-25T01:05:54.604Z,96.07
2022-08-25T01:08:29.215Z,95.85
2022-08-25T01:11:03.005Z,95.11
2022-08-25T01:13:39.463Z,94.79
2022-08-25T01:16:08.328Z,95.00
2022-08-25T01:18:48.287Z,95.08
2022-08-25T01:21:19.190Z,94.58
2022-08-25T01:23:49.157Z,95.56
2022-08-25T01:26:32.460Z,95.92
2022-08-25T01:29:23.652Z,95.56
2022-08-25T01:31:57.631Z,95.45
2022-08-25T01:34:32.363Z,96.29
2022-08-25T01:37:01.669Z,95.32
2022-08-25T01:39:34.325Z,95.58
2022-08-25T01:42:12.576Z,96.07
2022-08-25T01:44:44.799Z,95.51
2022-08-25T01:47:15.247Z,96.21
2022-08-25T01:49:46.159Z,95.22
2022-08-25T01:52:25.338Z,95.23
2022-08-25T01:54:53.943Z,94.54
2022-08-25T01:57:23.445Z,94.21
2022-08-25T01:59:52.005Z,95.01
2022-08-25T02:02:20.611Z,95.64
2022-08-25T02:04:50.710Z,95.06
2022-08-25T02:07:19.883Z,94.16
2022-08-25T02:09:48.554Z,95.13
2022-08-25T02:12:17.376Z,95.91
2022-08-25T02:14:47.147Z,95.50
2022-08-25T02:17:15.690Z,94.59
2022-08-25T02:19:44.383Z,94.08
2022-08-25T02:22:13.034Z,94.67
2022-08-25T02:24:41.717Z,94.15
2022-08-25T02:27:11.751Z,94.96
2022-08-25T02:29:40.911Z,95.27
2022-08-25T02:32:11.211Z,94.84
2022-08-25T02:34:42.513Z,94.20
2022-08-25T02:37:11.138Z,94.41
2022-08-25T02:39:39.706Z,94.68
2022-08-25T02:42:08.250Z,93.52
2022-08-25T02:44:36.843Z,93.81
2022-08-25T02:47:06.394Z,94.69
2022-08-25T02:49:36.325Z,95.46
2022-08-25T02:52:05.159Z,94.60
2022-08-25T02:54:33.911Z,93.95
2022-08-25T02:57:02.973Z,92.91
2022-08-25T02:59:32.170Z,93.44
2022-08-25T03:02:01.117Z,92.70
2022-08-25T03:04:30.485Z,91.65
2022-08-25T03:07:00.192Z,92.77
2022-08-25T03:09:29.254Z,92.00
2022-08-25T03:11:58.295Z,92.49
2022-08-25T03:14:26.888Z,91.83
2022-08-25T03:16:55.624Z,92.14
2022-08-25T03:19:25.798Z,93.55
2022-08-25T03:21:57.289Z,94.30
2022-08-25T03:24:26.445Z,94.99
2022-08-25T03:26:56.859Z,94.81
2022-08-25T03:29:32.268Z,95.13
2022-08-25T03:32:02.129Z,95.47
2022-08-25T03:34:32.098Z,95.87
2022-08-25T03:37:01.103Z,95.81
2022-08-25T03:39:30.135Z,95.64
2022-08-25T03:41:58.765Z,95.82
2022-08-25T03:44:27.320Z,96.03
2022-08-25T03:46:55.872Z,95.93
2022-08-25T03:49:25.738Z,95.99
2022-08-25T03:51:56.023Z,95.29
2022-08-25T03:54:27.173Z,95.31
2022-08-25T03:56:56.309Z,95.34
2022-08-25T03:59:25.071Z,94.82
2022-08-25T04:01:55.409Z,94.25
2022-08-25T04:04:24.582Z,94.27
2022-08-25T04:06:54.191Z,94.87
2022-08-25T04:09:22.821Z,95.22
2022-08-25T04:11:53.271Z,95.17
2022-08-25T04:14:23.249Z,94.75
2022-08-25T04:16:52.196Z,94.97
2022-08-25T04:19:21.827Z,94.88
2022-08-25T04:21:51.337Z,95.01
2022-08-25T04:24:20.311Z,94.90
2022-08-25T04:26:51.942Z,94.39
2022-08-25T04:29:23.583Z,93.76
2022-08-25T04:31:53.609Z,94.32
2022-08-25T04:34:30.979Z,92.81
2022-08-25T04:37:05.060Z,92.80
2022-08-25T04:39:33.988Z,93.06
2022-08-25T04:42:02.736Z,92.60
2022-08-25T04:44:32.911Z,93.37
2022-08-25T04:47:02.443Z,92.90
2022-08-25T04:49:31.257Z,92.36
2022-08-25T04:52:00.289Z,91.59
2022-08-25T04:54:29.290Z,91.98
2022-08-25T04:57:05.808Z,91.39
2022-08-25T04:59:34.564Z,91.05
2022-08-25T05:02:03.962Z,90.17
2022-08-25T05:04:33.675Z,88.82
2022-08-25T05:07:02.620Z,88.35
2022-08-25T05:09:32.399Z,89.39
2022-08-25T05:12:03.568Z,89.05
2022-08-25T05:14:33.523Z,88.34
2022-08-25T05:17:02.304Z,88.69
2022-08-25T05:19:30.960Z,88.68
2022-08-25T05:21:59.609Z,89.69
2022-08-25T05:24:29.056Z,87.82
2022-08-25T05:26:58.295Z,87.14
2022-08-25T05:29:28.036Z,85.68
2022-08-25T05:31:56.717Z,89.15
2022-08-25T05:34:26.411Z,87.67
2022-08-25T05:36:55.642Z,88.14
2022-08-25T05:39:24.700Z,85.80
2022-08-25T05:41:55.725Z,86.39
2022-08-25T05:44:24.352Z,87.21
2022-08-25T05:46:53.560Z,88.10
2022-08-25T05:49:22.205Z,88.37
2022-08-25T05:51:50.844Z,87.36
2022-08-25T05:54:19.527Z,86.02
2022-08-25T05:56:48.165Z,84.02
2022-08-25T05:59:16.721Z,85.85
2022-08-25T06:02:03.429Z,85.47
2022-08-25T06:04:31.971Z,86.51
2022-08-25T06:07:00.640Z,86.03
2022-08-25T06:09:29.298Z,86.07
2022-08-25T06:11:58.004Z,84.99
2022-08-25T06:14:26.898Z,84.33
2022-08-25T06:16:55.582Z,85.50
2022-08-25T06:19:24.744Z,85.57
2022-08-25T06:21:56.789Z,84.14
2022-08-25T06:24:27.408Z,84.73
2022-08-25T06:26:57.218Z,83.31
2022-08-25T06:29:26.312Z,83.74
2022-08-25T06:31:54.946Z,81.73
2022-08-25T06:34:23.844Z,80.53
2022-08-25T06:36:53.242Z,82.44
2022-08-25T06:39:22.360Z,81.37
2022-08-25T06:41:57.520Z,83.38
2022-08-25T06:44:27.384Z,81.90
2022-08-25T06:46:56.346Z,81.98
2022-08-25T06:49:31.921Z,82.94
2022-08-25T06:52:03.495Z,84.67
2022-08-25T06:54:32.172Z,80.50
2022-08-25T06:57:00.739Z,81.36
2022-08-25T06:59:32.099Z,81.56
2022-08-25T07:02:03.211Z,82.01
2022-08-25T07:04:33.295Z,80.54
2022-08-25T07:07:02.118Z,81.70
2022-08-25T07:09:30.813Z,82.04
2022-08-25T07:11:59.833Z,80.29
2022-08-25T07:14:28.453Z,79.74
2022-08-25T07:16:56.985Z,80.99
2022-08-25T07:19:25.510Z,82.71
2022-08-25T07:21:55.292Z,83.10
2022-08-25T07:24:25.042Z,82.74
2022-08-25T07:26:54.021Z,82.36
2022-08-25T07:29:32.796Z,81.74
2022-08-25T07:32:06.325Z,80.83
2022-08-25T07:34:53.637Z,81.84
2022-08-25T07:37:47.917Z,79.89
2022-08-25T07:40:27.209Z,80.20
2022-08-25T07:42:59.324Z,79.18
2022-08-25T07:45:34.308Z,80.03
2022-08-25T07:48:07.088Z,80.30
2022-08-25T07:50:40.138Z,81.77
2022-08-25T07:53:09.607Z,81.22
2022-08-25T07:55:40.059Z,80.80
2022-08-25T07:58:10.459Z,81.59
2022-08-25T08:00:42.692Z,81.38
2022-08-25T08:03:19.895Z,80.51
2022-08-25T08:06:00.970Z,81.75
2022-08-25T08:08:30.419Z,82.21
2022-08-25T08:11:04.715Z,84.66
2022-08-25T08:13:39.325Z,85.47
2022-08-25T08:16:14.612Z,85.21
2022-08-25T08:18:45.064Z,86.93
2022-08-25T08:21:20.077Z,87.31
2022-08-25T08:23:49.625Z,86.62
2022-08-25T08:26:19.310Z,85.64
2022-08-25T08:28:51.866Z,85.40
2022-08-25T08:31:27.901Z,85.32
2022-08-25T08:33:59.030Z,84.14
2022-08-25T08:36:28.042Z,84.30
2022-08-25T08:38:58.665Z,84.38
2022-08-25T08:42:11.390Z,84.43
2022-08-25T08:44:46.848Z,84.42
2022-08-25T08:47:30.074Z,84.63
2022-08-25T08:50:35.742Z,85.35
2022-08-25T08:53:18.057Z,86.14
2022-08-25T08:56:01.283Z,87.42
2022-08-25T08:58:52.581Z,88.23
2022-08-25T09:01:37.415Z,88.10
2022-08-25T09:04:31.479Z,88.02
2022-08-25T09:07:04.741Z,86.37
2022-08-25T09:09:36.324Z,87.26
2022-08-25T09:12:23.010Z,87.52
2022-08-25T09:14:54.012Z,87.34
2022-08-25T09:17:38.319Z,86.94
2022-08-25T09:20:43.360Z,86.95
2022-08-25T09:23:31.795Z,87.56
2022-08-25T09:26:37.247Z,87.74
2022-08-25T09:29:17.236Z,87.38
2022-08-25T09:31:46.723Z,88.27
2022-08-25T09:34:21.721Z,87.98
2022-08-25T09:36:53.946Z,88.59
2022-08-25T09:39:23.448Z,88.95
2022-08-25T09:41:57.593Z,89.78
2022-08-25T09:44:30.311Z,89.83
2022-08-25T09:47:14.859Z,90.80
2022-08-25T09:49:47.133Z,90.96
2022-08-25T09:52:37.352Z,90.24
2022-08-25T09:55:15.150Z,91.23
2022-08-25T09:57:57.778Z,90.58
2022-08-25T10:00:32.182Z,90.22
2022-08-25T10:03:13.100Z,90.62
2022-08-25T10:06:01.304Z,90.90
2022-08-25T10:08:37.468Z,90.92
2022-08-25T10:11:16.796Z,91.51
2022-08-25T10:13:51.994Z,92.49
2022-08-25T10:16:34.086Z,93.16
2022-08-25T10:19:07.710Z,93.79
2022-08-25T10:21:39.315Z,92.87
2022-08-25T10:24:10.207Z,93.35
2022-08-25T10:26:58.915Z,93.32
2022-08-25T10:29:33.064Z,93.42
2022-08-25T10:32:18.029Z,93.58
2022-08-25T10:34:51.748Z,93.54
2022-08-25T10:37:32.958Z,94.32
2022-08-25T10:40:14.075Z,94.00
2022-08-25T10:43:00.029Z,93.15
2022-08-25T10:45:46.726Z,93.45
2022-08-25T10:48:50.778Z,93.90
2022-08-25T10:51:37.926Z,94.09
2022-08-25T10:54:15.217Z,94.58
2022-08-25T10:56:55.790Z,95.21
2022-08-25T10:59:51.179Z,95.30
2022-08-25T11:02:41.502Z,95.29
2022-08-25T11:05:24.680Z,95.56
2022-08-25T11:08:46.397Z,95.57
2022-08-25T11:11:37.825Z,95.22
2022-08-25T11:14:12.519Z,95.06
2022-08-25T11:16:49.198Z,95.14
2022-08-25T11:19:27.952Z,96.02
2022-08-25T11:22:19.411Z,96.50
2022-08-25T11:24:51.118Z,96.16
2022-08-25T11:27:24.784Z,96.64
2022-08-25T11:30:08.025Z,96.88
2022-08-25T11:32:39.427Z,96.96
2022-08-25T11:35:12.369Z,96.93
2022-08-25T11:37:58.928Z,97.82
2022-08-25T11:40:42.521Z,97.80
2022-08-25T11:43:26.686Z,97.33
2022-08-25T11:46:27.848Z,97.55
2022-08-25T11:49:25.143Z,96.82
2022-08-25T11:51:54.588Z,97.05
2022-08-25T11:54:38.281Z,96.35
2022-08-25T11:57:23.314Z,97.19
2022-08-25T11:59:52.592Z,97.64
2022-08-25T12:02:41.248Z,97.24
2022-08-25T12:05:25.582Z,96.89
2022-08-25T12:08:12.221Z,96.79
2022-08-25T12:11:07.231Z,96.23
2022-08-25T12:13:50.823Z,96.74
2022-08-25T12:16:37.274Z,96.27
2022-08-25T12:19:36.704Z,95.78
2022-08-25T12:22:06.683Z,96.13
2022-08-25T12:24:47.534Z,96.59
2022-08-25T12:27:38.241Z,97.02
2022-08-25T12:30:27.770Z,97.81
2022-08-25T12:33:02.576Z,98.74
2022-08-25T12:35:56.675Z,98.99
2022-08-25T12:38:30.142Z,99.38
2022-08-25T12:41:19.643Z,99.57
2022-08-25T12:43:51.215Z,99.49
2022-08-25T12:46:30.147Z,99.77
2022-08-25T12:49:01.315Z,100.00
2022-08-25T12:51:42.233Z,99.53
2022-08-25T12:54:52.274Z,100.00
2022-08-25T12:57:42.305Z,100.00
2022-08-25T13:02:57.566Z,100.00
2022-08-25T13:05:44.396Z,99.53
2022-08-25T13:08:46.808Z,99.58
2022-08-25T13:11:25.842Z,99.89
2022-08-25T13:14:26.883Z,99.29
2022-08-25T13:17:00.631Z,98.60
2022-08-25T13:19:34.746Z,98.32
2022-08-25T13:22:18.816Z,98.24
2022-08-25T13:24:51.600Z,97.93
2022-08-25T13:27:26.402Z,97.10
2022-08-25T13:29:59.122Z,97.23
2022-08-25T13:32:35.818Z,97.94
2022-08-25T13:35:20.524Z,98.14
2022-08-25T13:37:50.245Z,98.09
2022-08-25T13:40:33.712Z,98.74
2022-08-25T13:43:14.180Z,99.32
2022-08-25T13:45:50.579Z,99.09
2022-08-25T13:48:49.271Z,100.00
2022-08-25T13:51:31.022Z,99.56
2022-08-25T13:54:03.903Z,99.58
2022-08-25T13:56:40.964Z,99.71
2022-08-25T13:59:40.285Z,99.35
2022-08-25T14:02:15.269Z,99.32
2022-08-25T14:04:52.715Z,99.49
2022-08-25T14:07:24.206Z,99.38
2022-08-25T14:10:33.364Z,100.00
2022-08-25T14:13:16.531Z,99.57
2022-08-25T14:15:48.034Z,99.78
2022-08-25T14:18:27.351Z,100.00
2022-08-25T14:20:58.416Z,100.00
2022-08-25T14:23:30.702Z,100.00
2022-08-25T14:26:00.123Z,100.00
2022-08-25T14:28:31.329Z,100.00
2022-08-25T14:31:06.199Z,100.00
2022-08-25T14:33:53.827Z,100.00
2022-08-25T14:36:22.526Z,100.00
2022-08-25T14:38:54.846Z,100.00
2022-08-25T14:41:25.699Z,100.00
2022-08-25T14:43:55.144Z,100.00
2022-08-25T14:46:29.252Z,100.00
2022-08-25T14:49:01.209Z,100.00
2022-08-25T14:51:33.714Z,100.00
2022-08-25T14:54:08.915Z,100.00
2022-08-25T14:56:37.636Z,100.00
2022-08-25T14:59:08.438Z,100.00
2022-08-25T15:01:37.244Z,100.00
2022-08-25T15:04:20.401Z,100.00
2022-08-25T15:06:55.114Z,100.00
2022-08-25T15:09:25.420Z,100.00
2022-08-25T15:12:01.859Z,100.00
2022-08-25T15:14:33.205Z,100.00
2022-08-25T15:17:03.407Z,100.00
2022-08-25T15:19:32.041Z,100.00
2022-08-25T15:22:00.656Z,100.00
2022-08-25T15:24:30.173Z,100.00
2022-08-25T15:27:04.966Z,100.00
2022-08-25T15:29:35.997Z,100.00
2022-08-25T15:32:08.133Z,100.00
2022-08-25T15:34:37.964Z,100.00
2022-08-25T15:37:13.253Z,100.00
2022-08-25T15:39:44.486Z,100.00
2022-08-25T15:42:14.940Z,100.00
2022-08-25T15:44:53.274Z,100.00
2022-08-25T15:47:23.930Z,100.00
2022-08-25T15:50:01.327Z,100.00
2022-08-25T15:52:44.591Z,100.00
2022-08-25T15:55:17.955Z,100.00
2022-08-25T15:57:49.490Z,100.00
2022-08-25T16:00:19.448Z,100.00
2022-08-25T16:02:50.839Z,100.00
2022-08-25T16:05:25.818Z,100.00
2022-08-25T16:07:54.822Z,100.00
2022-08-25T16:10:24.639Z,100.00
2022-08-25T16:12:53.787Z,100.00
2022-08-25T16:15:23.995Z,100.00
2022-08-25T16:17:59.078Z,100.00
2022-08-25T16:20:29.089Z,100.00
2022-08-25T16:22:59.162Z,100.00
2022-08-25T16:25:29.604Z,100.00
2022-08-25T16:27:58.327Z,100.00
2022-08-25T16:30:27.103Z,100.00
2022-08-25T16:32:55.684Z,100.00
2022-08-25T16:35:24.689Z,100.00
2022-08-25T16:37:53.252Z,100.00
2022-08-25T16:40:24.513Z,100.00
2022-08-25T16:42:56.087Z,100.00
2022-08-25T16:45:24.742Z,100.00
2022-08-25T16:47:53.432Z,100.00
2022-08-25T16:50:22.078Z,100.00
2022-08-25T16:53:09.340Z,100.00
2022-08-25T16:55:38.993Z,100.00
2022-08-25T16:58:08.784Z,100.00
2022-08-25T17:00:43.973Z,100.00
2022-08-25T17:03:14.074Z,100.00
2022-08-25T17:05:44.409Z,100.00
2022-08-25T17:08:31.236Z,100.00
2022-08-25T17:11:16.918Z,100.00
2022-08-25T17:13:49.743Z,100.00
2022-08-25T17:16:20.476Z,100.00
2022-08-25T17:18:49.657Z,100.00
2022-08-25T17:21:24.536Z,100.00
2022-08-25T17:23:54.877Z,100.00
2022-08-25T17:26:27.872Z,100.00
2022-08-25T17:28:59.741Z,100.00
2022-08-25T17:31:30.674Z,100.00
2022-08-25T17:34:00.433Z,100.00
2022-08-25T17:36:29.625Z,100.00
2022-08-25T17:38:58.285Z,100.00
2022-08-25T17:41:27.099Z,100.00
2022-08-25T17:43:55.741Z,100.00
2022-08-25T17:46:25.070Z,100.00
2022-08-25T17:48:54.903Z,100.00
2022-08-25T17:51:24.067Z,100.00
2022-08-25T17:53:53.826Z,100.00
2022-08-25T17:56:27.357Z,100.00
2022-08-25T17:58:57.872Z,100.00
2022-08-25T18:01:30.425Z,100.00
2022-08-25T18:04:00.429Z,100.00
2022-08-25T18:06:33.226Z,100.00
2022-08-25T18:09:02.709Z,100.00
2022-08-25T18:11:31.480Z,100.00
2022-08-25T18:14:00.943Z,100.00
2022-08-25T18:16:30.024Z,100.00
2022-08-25T18:18:58.964Z,100.00
2022-08-25T18:21:30.702Z,100.00
2022-08-25T18:23:59.890Z,100.00
2022-08-25T18:26:28.763Z,100.00
2022-08-25T18:28:57.345Z,100.00
2022-08-25T18:31:26.841Z,100.00
2022-08-25T18:33:55.808Z,100.00
2022-08-25T18:36:24.580Z,100.00
2022-08-25T18:39:13.472Z,100.00
2022-08-25T18:41:45.037Z,100.00
2022-08-25T18:44:15.451Z,100.00
2022-08-25T18:46:45.591Z,100.00
2022-08-25T18:49:16.242Z,100.00
2022-08-25T18:51:47.387Z,100.00
2022-08-25T18:54:23.428Z,100.00
2022-08-25T18:56:54.710Z,100.00
2022-08-25T18:59:24.250Z,100.00
2022-08-25T19:01:54.890Z,100.00
2022-08-25T19:04:31.563Z,100.00
2022-08-25T19:07:01.861Z,100.00
2022-08-25T19:09:32.469Z,100.00
2022-08-25T19:12:02.215Z,99.79
2022-08-25T19:14:30.933Z,99.27
2022-08-25T19:17:00.942Z,99.38
2022-08-25T19:19:29.950Z,99.28
2022-08-25T19:21:59.387Z,99.03
2022-08-25T19:24:29.293Z,99.03
2022-08-25T19:26:59.016Z,98.76
2022-08-25T19:29:30.500Z,98.42
2022-08-25T19:32:01.068Z,98.84
2022-08-25T19:34:34.261Z,98.67
2022-08-25T19:37:04.882Z,98.61
2022-08-25T19:39:35.522Z,98.64
2022-08-25T19:42:08.794Z,98.36
2022-08-25T19:44:57.429Z,98.92
2022-08-25T19:47:27.022Z,98.78
2022-08-25T19:49:56.155Z,98.13
2022-08-25T19:52:26.743Z,98.41
2022-08-25T19:54:56.296Z,98.17
2022-08-25T19:57:28.530Z,98.40
2022-08-25T20:00:30.278Z,98.42
2022-08-25T20:03:01.501Z,98.79
2022-08-25T20:05:31.150Z,98.32
2022-08-25T20:08:00.896Z,98.86
2022-08-25T20:10:35.603Z,98.95
2022-08-25T20:13:10.888Z,98.83
2022-08-25T20:15:40.075Z,98.45
2022-08-25T20:18:09.171Z,98.45
2022-08-25T20:20:38.481Z,98.62
2022-08-25T20:23:26.470Z,99.06
2022-08-25T20:25:56.570Z,98.98
2022-08-25T20:28:25.363Z,98.55
2022-08-25T20:30:53.992Z,99.12
2022-08-25T20:33:23.583Z,99.23
2022-08-25T20:35:53.119Z,99.40
2022-08-25T20:38:22.000Z,99.72
2022-08-25T20:40:50.540Z,98.88
2022-08-25T20:43:19.124Z,99.06
2022-08-25T20:45:49.645Z,99.33
2022-08-25T20:48:18.428Z,98.72
2022-08-25T20:50:57.366Z,99.08
2022-08-25T20:53:27.439Z,99.27
2022-08-25T20:55:56.103Z,99.35
2022-08-25T20:58:24.911Z,99.17
2022-08-25T21:00:55.935Z,99.22
2022-08-25T21:03:24.528Z,98.84
2022-08-25T21:05:53.986Z,99.09
2022-08-25T21:08:23.756Z,98.91
2022-08-25T21:10:52.496Z,98.96
2022-08-25T21:13:21.197Z,99.07
2022-08-25T21:15:51.611Z,98.80
2022-08-25T21:18:20.182Z,99.09
2022-08-25T21:20:49.323Z,98.87
2022-08-25T21:23:17.897Z,98.67
2022-08-25T21:25:46.749Z,98.55
2022-08-25T21:28:16.109Z,98.65
2022-08-25T21:30:47.424Z,99.08
2022-08-25T21:33:16.520Z,98.61
2022-08-25T21:35:45.306Z,98.82
2022-08-25T21:38:15.567Z,98.23
2022-08-25T21:40:45.006Z,98.27
2022-08-25T21:43:13.802Z,98.12
2022-08-25T21:45:46.697Z,98.17
2022-08-25T21:48:15.754Z,98.39
2022-08-25T21:50:44.357Z,98.22
2022-08-25T21:53:13.639Z,98.60
2022-08-25T21:55:45.642Z,98.33
2022-08-25T21:58:14.212Z,97.80
2022-08-25T22:00:43.954Z,97.13
2022-08-25T22:03:12.553Z,97.22
2022-08-25T22:05:41.099Z,97.18
2022-08-25T22:08:14.130Z,96.63
2022-08-25T22:10:46.532Z,96.35
2022-08-25T22:13:15.084Z,96.25
2022-08-25T22:15:43.625Z,95.81
2022-08-25T22:18:12.357Z,96.33
2022-08-25T22:20:41.358Z,96.00
2022-08-25T22:23:10.172Z,96.20
2022-08-25T22:25:49.532Z,96.19
2022-08-25T22:28:19.779Z,95.89
2022-08-25T22:30:48.607Z,96.23
2022-08-25T22:33:17.527Z,96.83
2022-08-25T22:35:46.982Z,96.11
2022-08-25T22:38:15.790Z,95.98
2022-08-25T22:40:46.403Z,96.05
2022-08-25T22:43:15.095Z,96.06
2022-08-25T22:45:43.855Z,96.48
2022-08-25T22:48:12.906Z,96.25
2022-08-25T22:50:41.480Z,96.68
2022-08-25T22:53:10.064Z,95.76
2022-08-25T22:55:44.635Z,95.87
2022-08-25T22:58:15.785Z,96.25
2022-08-25T23:00:44.368Z,96.66
2022-08-25T23:03:13.023Z,96.94
2022-08-25T23:05:41.893Z,96.68
2022-08-25T23:08:10.472Z,96.55
2022-08-25T23:10:39.024Z,96.80
2022-08-25T23:13:08.005Z,96.32
2022-08-25T23:15:36.623Z,96.47
2022-08-25T23:18:05.514Z,96.60
2022-08-25T23:20:52.268Z,97.04
2022-08-25T23:23:21.262Z,96.90
2022-08-25T23:25:50.684Z,96.70
2022-08-25T23:28:19.836Z,96.68
2022-08-25T23:30:56.982Z,96.44
2022-08-25T23:33:28.207Z,95.75
2022-08-25T23:36:06.413Z,95.61
2022-08-25T23:38:35.788Z,96.00
2022-08-25T23:41:11.047Z,95.60
2022-08-25T23:43:39.806Z,94.67
2022-08-25T23:46:10.192Z,94.72
2022-08-25T23:48:39.517Z,94.79
2022-08-25T23:51:08.357Z,94.55
2022-08-25T23:53:38.018Z,95.20
2022-08-25T23:56:07.531Z,95.56
2022-08-25T23:58:37.053Z,95.57
